Главная страница
METAR-TAF:

METAR-TAF

Аэропорты :

Крайова, Румыния

широта: 44-14N, долгота: 023-52E, высота над уровнем моря: 192 м

Текущие метеонаблюдения

Эта сводка был подготовлена 32 минут назад, в 20:30 UTC
Ветер 4 Узел от северо-северо-восточный
Температура 21°C
Влажность 78%
Давление 1015 hPa
Видимость 10 км и более

METAR: LRCV 202030Z AUTO 03004KT 9999 NCD 21/17 Q1015

Время: 00:02 (21:02 UTC)

Прогноз

Эта сводка был подготовлена 1 час и 2 минут назад, в 20:00 UTC
Прогноз действительный с 20-го 21 UTC до 21-го 06 UTC
Ветер 4 Узел от северо-восточный
Видимость 10 км и более
Нет облачности ниже 1500 м, и нет кучево-дождевой облачности

TAF: LRCV 202000Z 2021/2106 05004KT CAVOK

Метеонаблюдения и прогнозы для более 4000 аэропортов (сводки METAR и TAF).

Имеющиеся станции представлены на карте желтыми и красными точками.

Чтобы увидеть название станции, наведите на нее мышь.

Затем щелкните, чтобы увидеть метеонаблюдения и метеопрогнозы.

Управление картой: чтобы увеличить масштаб, щелкните зеленые кнопки с черным крестиком; чтобы уменьшить масштаб, щелкните зеленую кнопку с тире; для просмотра соседних карт щелкайте зеленые стрелки.


METAR-TAF: